Time;durP1;ratioP1;P1;durP2;ratioP2;P2;SDS_P1;SDS_P2;PMS_P1;PMS_P2;Temp;Humidity;BMP_temperature;BMP_pressure;BME280_temperature;BME280_humidity;BME280_pressure;Samples;Min_cycle;Max_cycle;Signal;HPM_P1;HPM_P2
2022/02/25 00:02:25;;;;;;;6.73;1.93;;;3.80;99.90;;;;;;4956666;29;20215;-91
2022/02/25 00:04:51;;;;;;;6.23;1.97;;;3.70;99.90;;;;;;4938775;29;20261;-92
2022/02/25 00:07:17;;;;;;;3.83;2.00;;;3.80;99.90;;;;;;4939840;29;20177;-92
2022/02/25 00:09:42;;;;;;;6.57;2.20;;;3.80;99.90;;;;;;4938111;29;20220;-93
2022/02/25 00:12:08;;;;;;;3.87;1.73;;;3.80;99.90;;;;;;4920697;29;20182;-92
2022/02/25 00:14:34;;;;;;;5.30;1.97;;;3.80;99.90;;;;;;4936515;29;20280;-90
2022/02/25 00:16:59;;;;;;;3.50;1.97;;;3.80;99.90;;;;;;4920802;29;20185;-92
2022/02/25 00:19:25;;;;;;;3.97;1.70;;;3.80;99.90;;;;;;4920868;29;20193;-92
2022/02/25 00:21:51;;;;;;;7.17;2.37;;;3.80;99.90;;;;;;4920850;29;20184;-90
2022/02/25 00:24:17;;;;;;;10.70;2.20;;;3.80;99.90;;;;;;4932335;29;20217;-89
2022/02/25 00:26:43;;;;;;;6.03;1.80;;;3.80;99.90;;;;;;4939751;29;20173;-92
2022/02/25 00:29:09;;;;;;;6.53;2.10;;;3.80;99.90;;;;;;4939635;29;20288;-91
2022/02/25 00:31:35;;;;;;;5.63;2.30;;;3.80;99.90;;;;;;4939705;29;20187;-93
2022/02/25 00:34:01;;;;;;;8.77;2.90;;;3.90;99.90;;;;;;4939743;29;20565;-91
2022/02/25 00:36:26;;;;;;;6.23;1.90;;;3.80;99.90;;;;;;4939865;29;20264;-92
2022/02/25 00:38:52;;;;;;;12.97;2.50;;;3.80;99.90;;;;;;4939782;29;20201;-90
2022/02/25 00:41:18;;;;;;;7.27;2.10;;;3.80;99.90;;;;;;4939955;29;20212;-92
2022/02/25 00:43:44;;;;;;;10.10;2.57;;;3.80;99.90;;;;;;4939488;29;20216;-94
2022/02/25 00:46:10;;;;;;;6.73;2.40;;;3.80;99.90;;;;;;4939604;29;20240;-94
2022/02/25 00:48:36;;;;;;;8.17;2.10;;;3.80;99.90;;;;;;4939557;29;20194;-95
2022/02/25 00:51:02;;;;;;;5.67;2.57;;;3.80;99.90;;;;;;4939666;29;20605;-93
2022/02/25 00:53:28;;;;;;;8.00;2.70;;;3.90;99.90;;;;;;4939311;29;20296;-91
2022/02/25 00:55:53;;;;;;;6.67;2.50;;;3.90;99.90;;;;;;4939609;29;20618;-92
2022/02/25 00:58:20;;;;;;;9.77;2.77;;;3.90;99.90;;;;;;4956490;29;20169;-92
2022/02/25 01:00:46;;;;;;;5.70;2.30;;;3.90;99.90;;;;;;4931024;29;20216;-92
2022/02/25 01:03:12;;;;;;;8.53;1.90;;;3.90;99.90;;;;;;4920742;29;20209;-91
2022/02/25 01:05:38;;;;;;;6.33;1.77;;;3.90;99.90;;;;;;4937513;29;20177;-93
2022/02/25 01:08:05;;;;;;;6.60;1.67;;;3.90;99.90;;;;;;4923733;29;20330;-93
2022/02/25 01:10:31;;;;;;;7.20;1.97;;;3.90;99.90;;;;;;4923874;29;20185;-94
2022/02/25 01:12:57;;;;;;;6.33;1.70;;;3.80;99.90;;;;;;4923629;29;20213;-92
2022/02/25 01:15:23;;;;;;;6.87;1.93;;;3.80;99.90;;;;;;4923561;29;20279;-90
2022/02/25 01:17:49;;;;;;;7.33;1.90;;;3.70;99.90;;;;;;4923890;29;20213;-92
2022/02/25 01:20:15;;;;;;;4.50;2.07;;;3.70;99.90;;;;;;4923650;29;20177;-92
2022/02/25 01:22:41;;;;;;;4.63;1.67;;;3.70;99.90;;;;;;4923355;29;20189;-87
2022/02/25 01:25:07;;;;;;;12.00;2.17;;;3.60;99.90;;;;;;4942472;29;20211;-91
2022/02/25 01:27:34;;;;;;;6.73;1.93;;;3.60;99.90;;;;;;4942387;29;20200;-89
2022/02/25 01:29:59;;;;;;;4.23;1.50;;;3.50;99.90;;;;;;4942566;29;20264;-91
2022/02/25 01:32:25;;;;;;;6.40;1.77;;;3.50;99.90;;;;;;4942714;29;20211;-91
2022/02/25 01:34:51;;;;;;;7.33;1.73;;;3.50;99.90;;;;;;4942355;29;20229;-92
2022/02/25 01:37:16;;;;;;;5.63;1.70;;;3.50;99.90;;;;;;4942283;29;20228;-92
2022/02/25 01:39:42;;;;;;;9.87;2.20;;;3.50;99.90;;;;;;4942264;29;20181;-90
2022/02/25 01:42:08;;;;;;;6.93;1.50;;;3.50;99.90;;;;;;4942410;29;20237;-92
2022/02/25 01:44:40;;;;;;;6.50;1.73;;;3.50;99.90;;;;;;4942135;29;20276;-90
2022/02/25 01:47:06;;;;;;;7.63;1.60;;;3.50;99.90;;;;;;4942014;29;20170;-92
2022/02/25 01:49:32;;;;;;;5.43;1.70;;;3.50;99.90;;;;;;4941980;29;20181;-91
2022/02/25 01:52:00;;;;;;;5.50;1.70;;;3.50;99.90;;;;;;4942275;29;20285;-91
2022/02/25 01:54:27;;;;;;;6.10;1.47;;;3.50;99.90;;;;;;4928399;29;20309;-90
2022/02/25 01:56:58;;;;;;;7.10;1.67;;;3.50;99.90;;;;;;4922747;29;20186;-93
2022/02/25 01:59:29;;;;;;;9.03;2.57;;;3.60;99.90;;;;;;4923013;29;20170;-91
2022/02/25 02:01:56;;;;;;;4.93;1.83;;;3.50;99.90;;;;;;4923002;29;20268;-91
2022/02/25 02:04:23;;;;;;;10.67;2.20;;;3.50;99.90;;;;;;4923041;29;20241;-90
2022/02/25 02:06:50;;;;;;;8.53;2.30;;;3.60;99.90;;;;;;4922696;29;20524;-94
2022/02/25 02:09:15;;;;;;;7.03;1.90;;;3.60;99.90;;;;;;4922395;29;20233;-90
2022/02/25 02:11:46;;;;;;;13.13;2.40;;;3.60;99.90;;;;;;4922784;29;20620;-91
2022/02/25 02:14:16;;;;;;;7.60;1.87;;;3.60;99.90;;;;;;4922965;29;20174;-89
2022/02/25 02:16:43;;;;;;;10.83;1.70;;;3.60;99.90;;;;;;4922662;29;20167;-88
2022/02/25 02:19:09;;;;;;;6.37;1.80;;;3.60;99.90;;;;;;4922315;29;20185;-93
2022/02/25 02:21:40;;;;;;;4.90;1.57;;;3.60;99.90;;;;;;4922538;29;20296;-88
2022/02/25 02:24:06;;;;;;;8.20;1.90;;;3.60;99.90;;;;;;4950113;29;20217;-91
2022/02/25 02:26:32;;;;;;;4.03;1.50;;;3.60;99.90;;;;;;4958976;29;20233;-94
2022/02/25 02:28:58;;;;;;;9.70;2.07;;;3.60;99.90;;;;;;4941459;29;20181;-93
2022/02/25 02:31:24;;;;;;;5.73;2.23;;;3.60;99.90;;;;;;4941810;29;20184;-87
2022/02/25 02:33:51;;;;;;;8.63;2.00;;;3.70;99.90;;;;;;4941272;29;20229;-92
2022/02/25 02:36:17;;;;;;;6.30;1.90;;;3.60;99.90;;;;;;4941452;29;20184;-87
2022/02/25 02:38:43;;;;;;;5.03;1.60;;;3.50;99.90;;;;;;4940873;29;20189;-86
2022/02/25 02:41:09;;;;;;;4.83;2.00;;;3.50;99.90;;;;;;4941254;29;20667;-93
2022/02/25 02:43:35;;;;;;;4.70;1.63;;;3.40;99.90;;;;;;4941198;29;20213;-93
2022/02/25 02:46:03;;;;;;;5.87;1.83;;;3.50;99.90;;;;;;4941314;29;20176;-88
2022/02/25 02:48:28;;;;;;;8.37;2.00;;;3.40;99.90;;;;;;4941072;29;20240;-92
2022/02/25 02:50:54;;;;;;;5.23;1.90;;;3.40;99.90;;;;;;4941125;29;20183;-90
2022/02/25 02:53:20;;;;;;;6.30;2.47;;;3.40;99.90;;;;;;4957808;29;20262;-90
2022/02/25 02:55:46;;;;;;;8.17;1.90;;;3.40;99.90;;;;;;4941179;29;20198;-91
2022/02/25 02:58:12;;;;;;;6.60;1.93;;;3.30;99.90;;;;;;4940803;29;20189;-92
2022/02/25 03:00:41;;;;;;;7.47;1.97;;;3.30;99.90;;;;;;4940948;29;20181;-91
2022/02/25 03:03:08;;;;;;;6.90;2.03;;;3.30;99.90;;;;;;4940595;29;20205;-86
2022/02/25 03:05:34;;;;;;;6.53;1.97;;;3.30;99.90;;;;;;4940543;29;20196;-89
2022/02/25 03:07:59;;;;;;;6.10;2.00;;;3.20;99.90;;;;;;4940667;29;20512;-88
2022/02/25 03:10:25;;;;;;;6.80;2.10;;;3.20;99.90;;;;;;4941066;29;20272;-90
2022/02/25 03:12:51;;;;;;;4.77;2.07;;;3.20;99.90;;;;;;4940670;29;20188;-89
2022/02/25 03:15:17;;;;;;;7.60;2.20;;;3.20;99.90;;;;;;4940753;29;20523;-90
2022/02/25 03:17:44;;;;;;;8.07;2.10;;;3.20;99.90;;;;;;4940718;29;20181;-92
2022/02/25 03:20:10;;;;;;;7.67;1.90;;;3.10;99.90;;;;;;4940744;29;20187;-90
2022/02/25 03:22:37;;;;;;;11.23;3.43;;;3.20;99.90;;;;;;4940600;29;20215;-90
2022/02/25 03:25:04;;;;;;;3.83;1.50;;;3.10;99.90;;;;;;4940703;29;20257;-89
2022/02/25 03:27:30;;;;;;;7.33;2.60;;;3.10;99.90;;;;;;4940357;29;20176;-95
2022/02/25 03:29:56;;;;;;;8.40;2.33;;;3.10;99.90;;;;;;4939879;29;20180;-94
2022/02/25 03:32:23;;;;;;;7.63;2.10;;;3.00;99.90;;;;;;4940256;29;20181;-92
2022/02/25 03:34:50;;;;;;;4.70;2.10;;;3.00;99.90;;;;;;4940287;29;20238;-89
2022/02/25 03:37:17;;;;;;;11.57;2.50;;;3.00;99.90;;;;;;4940175;29;20279;-89
2022/02/25 03:39:42;;;;;;;4.90;2.13;;;3.00;99.90;;;;;;4940188;29;20176;-88
2022/02/25 03:42:08;;;;;;;8.60;2.00;;;3.00;99.90;;;;;;4940827;29;20189;-93
2022/02/25 03:44:34;;;;;;;4.83;2.43;;;3.00;99.90;;;;;;4957186;29;20213;-90
2022/02/25 03:47:00;;;;;;;9.40;2.07;;;2.90;99.90;;;;;;4939884;29;20631;-89
2022/02/25 03:49:26;;;;;;;7.73;2.40;;;2.90;99.90;;;;;;4940093;29;20185;-90
2022/02/25 03:51:52;;;;;;;5.97;2.30;;;2.90;99.90;;;;;;4940549;29;20181;-91
2022/02/25 03:54:18;;;;;;;8.57;2.40;;;2.90;99.90;;;;;;4957016;29;20199;-93
2022/02/25 03:56:44;;;;;;;4.93;2.37;;;2.80;99.90;;;;;;4940090;29;20647;-90
2022/02/25 03:59:09;;;;;;;6.03;2.60;;;2.80;99.90;;;;;;4957276;29;20188;-91
2022/02/25 04:01:35;;;;;;;10.23;2.60;;;2.80;99.90;;;;;;4940112;29;20236;-89
2022/02/25 04:04:01;;;;;;;5.50;2.63;;;2.80;99.90;;;;;;4940050;29;20647;-91
2022/02/25 04:06:27;;;;;;;7.33;2.80;;;2.80;99.90;;;;;;4939971;29;20260;-89
2022/02/25 04:08:54;;;;;;;4.80;2.60;;;2.80;99.90;;;;;;4939896;29;20526;-93
2022/02/25 04:11:21;;;;;;;7.33;3.50;;;2.80;99.90;;;;;;4940221;29;20271;-96
2022/02/25 04:13:47;;;;;;;4.47;2.70;;;2.80;99.90;;;;;;4957458;29;20184;-89
2022/02/25 04:16:14;;;;;;;8.53;3.03;;;2.80;99.90;;;;;;4957017;29;20188;-90
2022/02/25 04:18:40;;;;;;;6.73;3.33;;;2.80;99.90;;;;;;4956877;29;20184;-90
2022/02/25 04:21:06;;;;;;;6.10;3.33;;;2.80;99.90;;;;;;4957256;29;20632;-89
2022/02/25 04:23:32;;;;;;;10.07;3.40;;;2.70;99.90;;;;;;4939806;29;20328;-91
2022/02/25 04:25:58;;;;;;;8.37;3.87;;;2.80;99.90;;;;;;4957346;29;20178;-90
2022/02/25 04:28:24;;;;;;;9.83;4.50;;;2.80;99.90;;;;;;4940003;29;20191;-95
2022/02/25 04:30:49;;;;;;;7.53;3.83;;;2.80;99.90;;;;;;4940185;29;20177;-90
2022/02/25 04:33:15;;;;;;;8.30;4.33;;;2.90;99.90;;;;;;4940110;29;20264;-90
2022/02/25 04:35:42;;;;;;;6.73;4.20;;;2.90;99.90;;;;;;4939456;29;20243;-93
2022/02/25 04:38:08;;;;;;;8.13;4.10;;;3.00;99.90;;;;;;4940335;29;20187;-84
2022/02/25 04:40:35;;;;;;;6.23;3.87;;;3.00;99.90;;;;;;4957191;28;20180;-93
2022/02/25 04:43:01;;;;;;;8.40;4.00;;;3.00;99.90;;;;;;4943912;29;20186;-91
2022/02/25 04:45:28;;;;;;;6.87;4.20;;;3.10;99.90;;;;;;4944321;29;20240;-88
2022/02/25 04:47:55;;;;;;;8.63;4.13;;;3.10;99.90;;;;;;4943907;29;20616;-89
2022/02/25 04:50:21;;;;;;;7.47;3.77;;;3.10;99.90;;;;;;4961244;29;20220;-93
2022/02/25 04:52:47;;;;;;;12.50;4.40;;;3.10;99.90;;;;;;4960604;29;20183;-94
2022/02/25 04:55:13;;;;;;;7.33;3.90;;;3.20;99.90;;;;;;4961349;29;20509;-91
2022/02/25 04:57:40;;;;;;;8.53;3.90;;;3.10;99.90;;;;;;4960702;29;20192;-91
2022/02/25 05:00:13;;;;;;;12.20;3.90;;;3.20;99.90;;;;;;4943305;29;20188;-91
2022/02/25 05:02:46;;;;;;;9.40;3.33;;;3.20;99.90;;;;;;4944043;29;20177;-89
2022/02/25 05:05:13;;;;;;;6.73;3.80;;;3.20;99.90;;;;;;4943943;29;20691;-91
2022/02/25 05:07:39;;;;;;;6.83;3.73;;;3.20;99.90;;;;;;4960083;29;20268;-89
2022/02/25 05:10:05;;;;;;;8.37;3.50;;;3.20;99.90;;;;;;4943239;29;20628;-89
2022/02/25 05:12:31;;;;;;;10.43;3.60;;;3.20;99.90;;;;;;4942987;29;20210;-90
2022/02/25 05:20:25;;;;;;;14.07;4.03;;;3.20;99.90;;;;;;4961468;29;20180;-90
2022/02/25 05:22:56;;;;;;;8.47;3.60;;;3.30;99.90;;;;;;4943655;29;20619;-91
2022/02/25 05:25:23;;;;;;;7.33;3.93;;;3.30;99.90;;;;;;4942962;29;20621;-89
2022/02/25 05:27:51;;;;;;;9.03;3.67;;;3.30;99.90;;;;;;4943397;29;20215;-93
2022/02/25 05:30:17;;;;;;;11.87;3.80;;;3.30;99.90;;;;;;4959995;29;20189;-93
2022/02/25 05:32:43;;;;;;;10.97;3.47;;;3.30;99.90;;;;;;4942499;29;20207;-91
2022/02/25 05:35:10;;;;;;;9.13;3.80;;;3.30;99.90;;;;;;4942890;29;20279;-92
2022/02/25 05:37:41;;;;;;;10.53;3.60;;;3.30;99.90;;;;;;4943036;29;20222;-89
2022/02/25 05:40:08;;;;;;;8.23;3.60;;;3.30;99.90;;;;;;4942417;29;20600;-90
2022/02/25 05:42:34;;;;;;;7.63;3.37;;;3.20;99.90;;;;;;4942836;29;20192;-89
2022/02/25 05:45:00;;;;;;;9.77;4.03;;;3.20;99.90;;;;;;4942510;29;20221;-90
2022/02/25 05:47:27;;;;;;;10.50;4.27;;;3.20;99.90;;;;;;4942787;29;20215;-90
2022/02/25 05:49:53;;;;;;;10.13;3.03;;;3.20;99.90;;;;;;4942283;29;20185;-90
2022/02/25 05:52:19;;;;;;;9.57;2.80;;;3.10;99.90;;;;;;4941420;29;20204;-91
2022/02/25 05:54:44;;;;;;;12.10;3.53;;;3.10;99.90;;;;;;4959013;29;20185;-91
2022/02/25 05:57:10;;;;;;;8.93;3.20;;;3.00;99.90;;;;;;4942481;29;20185;-91
2022/02/25 05:59:36;;;;;;;6.80;3.17;;;3.10;99.90;;;;;;4942096;29;20185;-89
2022/02/25 06:02:03;;;;;;;5.90;3.03;;;3.00;99.90;;;;;;4959098;29;20308;-90
2022/02/25 06:04:28;;;;;;;10.03;3.30;;;3.00;99.90;;;;;;4941874;29;20213;-89
2022/02/25 06:06:54;;;;;;;6.70;3.07;;;3.00;99.90;;;;;;4958506;29;20195;-90
2022/02/25 06:09:20;;;;;;;10.23;3.37;;;3.10;99.90;;;;;;4941641;29;20275;-91
2022/02/25 06:11:45;;;;;;;15.97;3.87;;;3.00;99.90;;;;;;4941945;29;20265;-90
2022/02/25 06:14:11;;;;;;;8.00;3.20;;;3.00;99.90;;;;;;4959398;29;20606;-93
2022/02/25 06:16:37;;;;;;;16.47;4.27;;;3.00;99.90;;;;;;4959203;29;20276;-90
2022/02/25 06:19:03;;;;;;;10.17;3.40;;;3.00;99.90;;;;;;4941684;29;20212;-92
2022/02/25 06:21:29;;;;;;;8.03;3.03;;;3.00;99.90;;;;;;4942148;29;20181;-94
2022/02/25 06:23:54;;;;;;;13.27;3.53;;;3.00;99.90;;;;;;4941607;29;20715;-89
2022/02/25 06:26:20;;;;;;;11.90;3.80;;;3.10;99.90;;;;;;4941576;29;20230;-92
2022/02/25 06:28:46;;;;;;;11.03;3.53;;;3.00;99.90;;;;;;4941366;29;20196;-95
2022/02/25 06:31:12;;;;;;;10.40;3.10;;;3.00;99.90;;;;;;4958646;29;20625;-90
2022/02/25 06:33:38;;;;;;;6.50;2.70;;;3.10;99.90;;;;;;4961958;28;20188;-89
2022/02/25 06:36:04;;;;;;;7.83;3.23;;;3.10;99.90;;;;;;4941068;29;20189;-89
2022/02/25 06:38:29;;;;;;;8.93;3.50;;;3.00;99.90;;;;;;4945548;29;20296;-87
2022/02/25 06:40:55;;;;;;;6.17;3.13;;;3.00;99.90;;;;;;4939457;29;20196;-88
2022/02/25 06:43:21;;;;;;;9.53;3.30;;;3.00;99.90;;;;;;4942275;29;20652;-90
2022/02/25 06:45:47;;;;;;;6.27;2.93;;;3.00;99.90;;;;;;4959690;29;20271;-96
2022/02/25 06:48:13;;;;;;;10.03;3.30;;;3.00;99.90;;;;;;4943255;29;20611;-90
2022/02/25 06:50:39;;;;;;;12.23;3.13;;;3.10;99.90;;;;;;4958683;28;20244;-90
2022/02/25 06:53:05;;;;;;;18.10;3.60;;;3.10;99.90;;;;;;4958155;29;20268;-89
2022/02/25 06:55:31;;;;;;;9.97;2.77;;;3.10;99.90;;;;;;4959435;29;20192;-91
2022/02/25 06:57:57;;;;;;;10.87;3.20;;;3.10;99.90;;;;;;4958194;29;20181;-90
2022/02/25 07:00:23;;;;;;;10.57;2.90;;;3.10;99.90;;;;;;4940550;29;20195;-85
2022/02/25 07:02:53;;;;;;;10.27;2.90;;;3.10;99.90;;;;;;4959098;29;20245;-96
2022/02/25 07:05:20;;;;;;;8.63;2.70;;;3.10;99.90;;;;;;4942515;29;20280;-92
2022/02/25 07:07:48;;;;;;;7.63;2.23;;;3.10;99.90;;;;;;4940424;29;20195;-91
2022/02/25 07:10:14;;;;;;;8.80;2.93;;;3.20;99.90;;;;;;4957653;29;20182;-91
2022/02/25 07:12:39;;;;;;;11.00;2.90;;;3.20;99.90;;;;;;4941119;29;20177;-89
2022/02/25 07:15:08;;;;;;;6.57;2.50;;;3.20;99.90;;;;;;4961577;29;20220;-90
2022/02/25 07:17:35;;;;;;;8.53;2.20;;;3.20;99.90;;;;;;4937477;29;20288;-96
2022/02/25 07:20:01;;;;;;;13.53;2.30;;;3.30;99.90;;;;;;4924394;29;20268;-92
2022/02/25 07:22:27;;;;;;;9.47;2.30;;;3.30;99.90;;;;;;4940574;29;20182;-90
2022/02/25 07:24:53;;;;;;;13.53;2.70;;;3.30;99.90;;;;;;4939589;29;20221;-96
2022/02/25 07:27:18;;;;;;;6.50;2.20;;;3.30;99.90;;;;;;4941765;29;20528;-91
2022/02/25 07:29:44;;;;;;;11.97;2.40;;;3.40;99.90;;;;;;4940436;29;20181;-93
2022/02/25 07:32:10;;;;;;;8.90;2.53;;;3.40;99.90;;;;;;4948089;28;20180;-93
2022/02/25 07:34:35;;;;;;;9.53;2.23;;;3.40;99.90;;;;;;4972321;28;20231;-86
2022/02/25 07:37:02;;;;;;;9.00;2.50;;;3.50;99.90;;;;;;4942003;29;20191;-87
2022/02/25 07:39:27;;;;;;;9.77;2.43;;;3.50;99.90;;;;;;4938377;29;20240;-92
2022/02/25 07:41:54;;;;;;;7.73;2.40;;;3.50;99.90;;;;;;4938475;29;20177;-84
2022/02/25 07:44:21;;;;;;;12.27;2.60;;;3.60;99.90;;;;;;4922555;29;20214;-94
2022/02/25 07:46:47;;;;;;;9.20;2.33;;;3.70;99.90;;;;;;4939045;29;20188;-94
2022/02/25 07:49:12;;;;;;;10.87;2.30;;;3.70;99.90;;;;;;4958510;29;20200;-94
2022/02/25 07:51:38;;;;;;;7.23;2.03;;;3.70;99.90;;;;;;4936646;29;20215;-92
2022/02/25 07:54:04;;;;;;;9.10;2.40;;;3.80;99.90;;;;;;4935074;29;20224;-89
2022/02/25 07:56:30;;;;;;;11.10;2.30;;;3.80;99.90;;;;;;4941156;29;20180;-94
2022/02/25 07:58:57;;;;;;;6.93;1.90;;;3.90;99.90;;;;;;4951836;29;20272;-96
2022/02/25 08:01:23;;;;;;;13.83;2.10;;;3.90;99.90;;;;;;4922356;29;20248;-94
2022/02/25 08:03:49;;;;;;;8.97;2.10;;;4.00;99.90;;;;;;4932196;29;20252;-84
2022/02/25 08:06:15;;;;;;;7.17;1.90;;;4.00;99.90;;;;;;4961514;28;20271;-89
2022/02/25 08:08:40;;;;;;;11.60;2.70;;;4.10;99.90;;;;;;4969198;28;20173;-85
2022/02/25 08:11:06;;;;;;;11.83;3.00;;;4.20;99.90;;;;;;4976146;28;20187;-84
2022/02/25 08:13:32;;;;;;;14.40;3.53;;;4.20;99.90;;;;;;4938486;29;20190;-94
2022/02/25 08:15:58;;;;;;;13.47;1.97;;;4.30;99.90;;;;;;4934874;29;20369;-91
2022/02/25 08:18:25;;;;;;;9.53;2.27;;;4.50;99.90;;;;;;4942829;29;20245;-91
2022/02/25 08:20:51;;;;;;;7.17;2.23;;;4.50;99.90;;;;;;4940055;28;20239;-92
2022/02/25 08:23:17;;;;;;;11.47;2.60;;;4.60;99.90;;;;;;4957716;29;20217;-93
2022/02/25 08:25:43;;;;;;;12.57;2.37;;;4.50;99.90;;;;;;4963137;29;20177;-92
2022/02/25 08:28:10;;;;;;;10.83;2.20;;;4.50;99.90;;;;;;4957956;28;20188;-92
2022/02/25 08:30:41;;;;;;;10.43;2.77;;;4.50;99.90;;;;;;4940612;29;20279;-92
2022/02/25 08:33:06;;;;;;;6.10;1.53;;;4.60;99.90;;;;;;4932050;29;20578;-88
2022/02/25 08:35:34;;;;;;;11.40;2.30;;;4.50;99.90;;;;;;4924470;29;20264;-92
2022/02/25 08:38:03;;;;;;;8.80;2.23;;;4.40;99.90;;;;;;4929359;29;20269;-94
2022/02/25 08:40:35;;;;;;;8.63;1.87;;;4.50;99.90;;;;;;4944443;29;20187;-92
2022/02/25 08:43:01;;;;;;;14.60;2.10;;;4.50;99.90;;;;;;4961233;29;20192;-92
2022/02/25 08:45:27;;;;;;;7.30;2.00;;;4.60;99.90;;;;;;4944094;29;20647;-89
2022/02/25 08:47:52;;;;;;;7.97;2.10;;;4.60;99.90;;;;;;4931181;29;20185;-93
2022/02/25 08:50:20;;;;;;;6.43;1.83;;;4.70;99.90;;;;;;4944789;29;20196;-91
2022/02/25 08:52:49;;;;;;;10.23;2.23;;;4.70;99.90;;;;;;4943634;29;20518;-91
2022/02/25 08:55:16;;;;;;;6.93;1.87;;;4.70;99.90;;;;;;4943502;29;20244;-91
2022/02/25 08:57:42;;;;;;;6.27;1.97;;;4.80;99.90;;;;;;4960599;29;20165;-91
2022/02/25 09:00:11;;;;;;;10.53;2.10;;;4.80;99.90;;;;;;4960764;29;20616;-89
2022/02/25 09:02:38;;;;;;;12.17;2.30;;;4.90;99.90;;;;;;4942810;29;20193;-87
2022/02/25 09:05:04;;;;;;;11.50;1.80;;;5.00;99.90;;;;;;4944217;29;20287;-95
2022/02/25 09:07:30;;;;;;;10.37;2.20;;;5.00;99.90;;;;;;4962296;29;20181;-94
2022/02/25 09:09:56;;;;;;;11.83;2.10;;;5.20;99.90;;;;;;4961824;29;20185;-92
2022/02/25 09:12:23;;;;;;;9.50;1.90;;;5.30;99.90;;;;;;4961792;29;20178;-88
2022/02/25 09:14:49;;;;;;;10.17;2.20;;;5.30;99.90;;;;;;4944351;29;20185;-95
2022/02/25 09:17:14;;;;;;;15.03;2.63;;;5.20;99.90;;;;;;4950008;29;20195;-96
2022/02/25 09:19:41;;;;;;;10.40;2.17;;;5.10;99.90;;;;;;4945942;29;20212;-91
2022/02/25 09:22:07;;;;;;;11.73;2.33;;;5.00;99.90;;;;;;4952523;28;20189;-93
2022/02/25 09:24:34;;;;;;;9.97;2.63;;;5.00;99.90;;;;;;4962409;28;20671;-93
2022/02/25 09:27:00;;;;;;;10.70;2.53;;;5.00;99.90;;;;;;4951777;29;20196;-91
2022/02/25 09:29:26;;;;;;;11.70;2.60;;;5.00;99.90;;;;;;4943332;29;20196;-94
2022/02/25 09:31:53;;;;;;;10.23;2.10;;;5.10;99.90;;;;;;4949949;28;20180;-93
2022/02/25 09:34:19;;;;;;;9.83;2.00;;;5.10;99.90;;;;;;4957131;29;20230;-93
2022/02/25 09:36:54;;;;;;;10.70;2.83;;;5.10;99.90;;;;;;4963992;29;20181;-92
2022/02/25 09:39:20;;;;;;;10.50;2.33;;;5.10;99.90;;;;;;4945382;29;20204;-93
2022/02/25 09:41:48;;;;;;;15.53;2.83;;;5.20;99.90;;;;;;4946008;29;20253;-94
2022/02/25 09:44:15;;;;;;;10.50;2.30;;;5.20;99.90;;;;;;4961305;29;20309;-94
2022/02/25 09:46:44;;;;;;;7.80;2.10;;;5.20;99.90;;;;;;4943564;29;20181;-87
2022/02/25 09:49:10;;;;;;;13.57;2.53;;;5.30;99.90;;;;;;4962208;29;20181;-88
2022/02/25 09:51:38;;;;;;;13.67;2.47;;;5.30;99.90;;;;;;4945528;29;20225;-95
2022/02/25 09:54:05;;;;;;;13.80;3.13;;;5.40;99.90;;;;;;4944673;29;20192;-89
2022/02/25 09:56:33;;;;;;;18.30;2.70;;;5.50;99.90;;;;;;4944363;29;20193;-91
2022/02/25 09:58:59;;;;;;;13.67;2.40;;;5.60;99.90;;;;;;4943852;29;20181;-89
2022/02/25 10:01:35;;;;;;;11.40;2.17;;;5.70;99.90;;;;;;4943475;29;20181;-91
2022/02/25 10:04:20;;;;;;;11.40;2.00;;;5.70;99.90;;;;;;4942458;29;20274;-94
2022/02/25 10:06:46;;;;;;;12.67;2.47;;;5.80;99.90;;;;;;4960399;29;20172;-87
2022/02/25 10:09:34;;;;;;;14.67;2.60;;;5.90;99.90;;;;;;4942349;29;20228;-94
2022/02/25 10:12:24;;;;;;;13.80;3.23;;;6.20;99.90;;;;;;4942550;29;20190;-85
2022/02/25 10:14:51;;;;;;;13.67;2.70;;;6.10;99.90;;;;;;4961756;29;20174;-88
2022/02/25 10:17:25;;;;;;;14.30;2.93;;;6.00;99.90;;;;;;4945937;29;20186;-89
2022/02/25 10:19:56;;;;;;;14.10;3.00;;;6.00;99.90;;;;;;4974629;28;20679;-88
2022/02/25 10:22:38;;;;;;;15.30;3.57;;;5.90;99.90;;;;;;4980089;28;20182;-86
2022/02/25 10:25:03;;;;;;;10.43;2.60;;;5.80;99.90;;;;;;4962334;28;20213;-86
2022/02/25 10:27:32;;;;;;;10.13;2.30;;;5.70;99.90;;;;;;4966628;28;20205;-93
2022/02/25 10:30:17;;;;;;;16.60;2.70;;;5.60;99.90;;;;;;4964380;29;20237;-93
2022/02/25 10:33:02;;;;;;;12.47;2.53;;;5.60;99.90;;;;;;4964475;29;20198;-85
2022/02/25 10:35:38;;;;;;;11.13;3.00;;;5.70;99.90;;;;;;4948304;29;20712;-93
2022/02/25 10:38:25;;;;;;;14.87;2.87;;;5.70;99.90;;;;;;4978012;28;20239;-94
2022/02/25 10:41:13;;;;;;;;;;;;;;;;;;;;;
2022/02/25 10:43:46;;;;;;;10.67;2.37;;;5.70;99.90;;;;;;4984001;28;20267;-95
2022/02/25 10:46:11;;;;;;;13.37;2.53;;;5.70;99.90;;;;;;4946927;29;20189;-92
2022/02/25 10:48:37;;;;;;;9.20;2.57;;;5.60;99.90;;;;;;4961711;29;20243;-96
2022/02/25 10:51:06;;;;;;;9.83;2.77;;;5.50;99.90;;;;;;4963365;29;20628;-94
2022/02/25 10:53:37;;;;;;;10.37;2.27;;;5.30;99.90;;;;;;4961855;29;20268;-88
2022/02/25 10:56:06;;;;;;;11.27;2.47;;;5.20;99.90;;;;;;4962684;29;20232;-95
2022/02/25 10:58:42;;;;;;;10.77;2.77;;;5.10;99.90;;;;;;4944360;29;20247;-93
2022/02/25 11:01:08;;;;;;;11.10;2.10;;;5.10;99.90;;;;;;4944391;29;20188;-88
2022/02/25 11:03:36;;;;;;;10.37;2.40;;;5.10;99.90;;;;;;4958773;29;20201;-88
2022/02/25 11:06:10;;;;;;;11.20;2.30;;;5.00;99.90;;;;;;4959063;28;20181;-91
2022/02/25 11:08:37;;;;;;;13.47;3.17;;;5.00;99.90;;;;;;4960525;29;20192;-92
2022/02/25 11:11:04;;;;;;;12.87;2.60;;;5.00;99.90;;;;;;4941911;29;20189;-93
2022/02/25 11:13:31;;;;;;;12.83;3.37;;;5.00;99.90;;;;;;4942014;29;20268;-88
2022/02/25 11:15:57;;;;;;;13.23;3.47;;;4.90;99.90;;;;;;4941410;29;20185;-89
2022/02/25 11:18:24;;;;;;;9.97;2.30;;;5.00;99.90;;;;;;4958163;29;20181;-88
2022/02/25 11:20:54;;;;;;;10.57;2.53;;;4.90;99.90;;;;;;4941086;29;20227;-93
2022/02/25 11:23:23;;;;;;;9.33;2.80;;;4.90;99.90;;;;;;4958679;29;20258;-92
2022/02/25 11:25:49;;;;;;;7.87;2.20;;;4.90;99.90;;;;;;4945994;29;20189;-86
2022/02/25 11:28:17;;;;;;;9.93;2.60;;;4.90;99.90;;;;;;4937750;29;20196;-89
2022/02/25 11:31:11;;;;;;;8.70;2.77;;;4.90;99.90;;;;;;4938137;29;20193;-91
2022/02/25 11:33:37;;;;;;;13.30;2.90;;;4.90;99.90;;;;;;4939003;29;20182;-95
2022/02/25 11:36:08;;;;;;;8.77;2.60;;;4.90;99.90;;;;;;4939884;29;20496;-92
2022/02/25 11:38:38;;;;;;;10.20;2.87;;;4.90;99.90;;;;;;4938978;29;20170;-89
2022/02/25 11:41:14;;;;;;;7.37;2.90;;;4.90;99.90;;;;;;4943466;29;20226;-94
2022/02/25 11:43:47;;;;;;;9.73;2.90;;;4.90;99.90;;;;;;4944243;29;20219;-95
2022/02/25 11:46:24;;;;;;;12.23;3.10;;;5.00;99.90;;;;;;4946228;28;20516;-94
2022/02/25 11:48:58;;;;;;;9.67;3.33;;;5.10;99.90;;;;;;4946844;29;20181;-95
2022/02/25 11:51:37;;;;;;;10.77;3.10;;;5.20;99.90;;;;;;4943479;29;20260;-94
2022/02/25 11:54:26;;;;;;;15.87;3.67;;;5.30;99.90;;;;;;4943667;29;20181;-94
2022/02/25 11:57:04;;;;;;;10.83;2.77;;;5.40;99.90;;;;;;4943207;29;20201;-91
2022/02/25 11:59:32;;;;;;;9.33;2.97;;;5.40;99.90;;;;;;4947070;29;20184;-96
2022/02/25 12:02:30;;;;;;;8.23;3.13;;;5.30;99.90;;;;;;4965946;29;20177;-94
2022/02/25 12:05:07;;;;;;;13.23;3.20;;;5.30;99.90;;;;;;4943417;29;20201;-95
2022/02/25 12:07:38;;;;;;;9.87;3.00;;;5.50;99.90;;;;;;4959158;29;20500;-95
2022/02/25 12:10:12;;;;;;;10.13;3.07;;;5.90;99.90;;;;;;4945466;29;20173;-96
2022/02/25 12:12:39;;;;;;;8.77;2.50;;;6.10;99.90;;;;;;4968142;29;20168;-94
2022/02/25 12:15:37;;;;;;;11.60;2.77;;;6.20;99.90;;;;;;4951355;29;20260;-96
2022/02/25 12:18:05;;;;;;;10.23;3.20;;;6.20;99.90;;;;;;4951322;29;20197;-94
2022/02/25 12:20:40;;;;;;;8.87;2.97;;;6.20;99.90;;;;;;4949395;29;20176;-94
2022/02/25 12:23:21;;;;;;;12.20;3.00;;;6.40;99.90;;;;;;4947852;29;20231;-95
2022/02/25 12:25:49;;;;;;;10.00;3.50;;;6.40;99.90;;;;;;4946291;29;20197;-96
2022/02/25 12:28:26;;;;;;;11.03;3.93;;;6.50;99.90;;;;;;4950649;29;20241;-91
2022/02/25 12:31:00;;;;;;;7.00;2.63;;;6.50;99.90;;;;;;4928488;29;20684;-93
2022/02/25 12:33:33;;;;;;;12.33;3.00;;;6.50;99.90;;;;;;4933057;29;20190;-93
2022/02/25 12:36:13;;;;;;;8.17;2.77;;;6.30;99.90;;;;;;4946155;28;20187;-96
2022/02/25 12:38:45;;;;;;;8.53;3.23;;;6.20;99.90;;;;;;4947046;29;20207;-94
2022/02/25 12:41:17;;;;;;;7.87;2.67;;;6.30;99.90;;;;;;4946649;29;20588;-94
2022/02/25 12:44:01;;;;;;;11.20;2.70;;;6.40;99.90;;;;;;4963549;29;20296;-95
2022/02/25 12:47:10;;;;;;;11.37;3.37;;;6.30;99.90;;;;;;4939998;29;20268;-89
2022/02/25 12:49:38;;;;;;;7.40;2.93;;;6.30;99.90;;;;;;4951391;28;20193;-95
2022/02/25 12:52:07;;;;;;;7.73;2.47;;;6.30;99.90;;;;;;4960512;28;20279;-95
2022/02/25 12:54:39;;;;;;;9.83;2.80;;;6.50;99.90;;;;;;4973258;28;20222;-96
2022/02/25 12:57:07;;;;;;;14.17;2.90;;;6.60;99.90;;;;;;4961214;28;20216;-96
2022/02/25 12:59:36;;;;;;;7.20;2.77;;;6.90;99.90;;;;;;4972553;29;20201;-96
2022/02/25 13:02:14;;;;;;;10.67;2.60;;;7.00;99.90;;;;;;4952868;29;20193;-91
2022/02/25 13:07:29;;;;;;;11.50;2.80;;;7.10;99.90;;;;;;4969708;28;20236;-89
2022/02/25 13:10:14;;;;;;;11.73;2.57;;;7.10;99.90;;;;;;4959308;28;20184;-90